createdAt,value
2019-04-12T00:00:02.330Z,2.20
2019-04-12T00:02:41.552Z,2.20
2019-04-12T00:05:22.522Z,2.10
2019-04-12T00:08:03.208Z,2.67
2019-04-12T00:10:44.020Z,2.63
2019-04-12T00:13:24.540Z,2.73
2019-04-12T00:16:05.195Z,2.10
2019-04-12T00:18:46.132Z,2.90
2019-04-12T00:21:27.402Z,3.07
2019-04-12T00:24:08.311Z,2.77
2019-04-12T00:26:49.677Z,2.80
2019-04-12T00:29:30.836Z,3.40
2019-04-12T00:32:11.368Z,2.87
2019-04-12T00:34:53.510Z,3.90
2019-04-12T00:37:34.947Z,3.13
2019-04-12T00:40:15.436Z,2.60
2019-04-12T00:42:56.339Z,3.17
2019-04-12T00:45:37.884Z,4.17
2019-04-12T00:48:18.816Z,3.73
2019-04-12T00:50:59.393Z,4.67
2019-04-12T00:53:44.603Z,4.50
2019-04-12T00:56:22.978Z,4.10
2019-04-12T00:59:03.647Z,4.00
2019-04-12T01:02:03.673Z,4.53
2019-04-12T01:04:48.355Z,4.90
2019-04-12T01:07:30.923Z,4.67
2019-04-12T01:10:11.845Z,5.00
2019-04-12T01:12:52.571Z,5.00
2019-04-12T01:15:33.627Z,4.83
2019-04-12T01:18:14.233Z,5.23
2019-04-12T01:20:55.349Z,4.93
2019-04-12T01:23:36.004Z,5.10
2019-04-12T01:26:16.733Z,4.80
2019-04-12T01:28:57.595Z,5.37
2019-04-12T01:31:38.510Z,5.30
2019-04-12T01:34:19.841Z,5.47
2019-04-12T01:37:00.419Z,5.77
2019-04-12T01:39:41.236Z,4.37
2019-04-12T01:42:22.000Z,5.50
2019-04-12T01:45:03.083Z,5.00
2019-04-12T01:47:43.825Z,5.60
2019-04-12T01:50:24.611Z,4.20
2019-04-12T01:53:05.453Z,4.80
2019-04-12T01:55:46.146Z,3.83
2019-04-12T01:58:27.031Z,3.63
2019-04-12T02:01:07.636Z,4.37
2019-04-12T02:03:48.523Z,3.87
2019-04-12T02:06:29.601Z,4.17
2019-04-12T02:09:10.271Z,4.20
2019-04-12T02:11:50.809Z,3.30
2019-04-12T02:14:31.460Z,4.70
2019-04-12T02:17:12.674Z,4.23
2019-04-12T02:19:53.022Z,3.90
2019-04-12T02:22:33.563Z,4.00
2019-04-12T02:25:20.894Z,3.53
2019-04-12T02:27:56.884Z,3.50
2019-04-12T02:30:38.367Z,3.90
2019-04-12T02:33:19.651Z,3.70
2019-04-12T02:36:02.008Z,3.10
2019-04-12T02:38:43.156Z,3.13
2019-04-12T02:41:23.509Z,3.77
2019-04-12T02:44:04.198Z,3.70
2019-04-12T02:58:54.961Z,3.53
2019-04-12T03:01:39.332Z,3.90
2019-04-12T03:04:19.578Z,3.93
2019-04-12T03:07:00.279Z,4.43
2019-04-12T03:09:41.129Z,4.30
2019-04-12T03:12:21.567Z,4.43
2019-04-12T03:15:02.672Z,4.10
2019-04-12T03:17:43.815Z,3.80
2019-04-12T03:20:25.292Z,3.63
2019-04-12T03:23:05.716Z,4.80
2019-04-12T03:25:53.290Z,4.90
2019-04-12T03:28:28.708Z,4.17
2019-04-12T03:31:09.295Z,5.63
2019-04-12T03:33:49.935Z,5.03
2019-04-12T03:36:30.638Z,4.90
2019-04-12T03:39:11.595Z,5.23
2019-04-12T03:41:52.047Z,5.37
2019-04-12T03:44:32.752Z,6.37
2019-04-12T03:47:13.354Z,6.90
2019-04-12T03:49:54.025Z,7.47
2019-04-12T03:52:34.777Z,5.30
2019-04-12T03:55:15.175Z,4.90
2019-04-12T03:57:55.692Z,4.10
2019-04-12T04:00:37.198Z,4.23
2019-04-12T04:03:18.095Z,3.80
2019-04-12T04:05:58.545Z,5.00
2019-04-12T04:08:39.390Z,4.30
2019-04-12T04:11:20.429Z,5.20
2019-04-12T04:14:01.698Z,4.77
2019-04-12T04:16:46.821Z,4.90
2019-04-12T04:19:32.450Z,4.10
2019-04-12T04:22:13.895Z,3.87
2019-04-12T04:24:57.314Z,4.27
2019-04-12T04:27:57.095Z,4.00
2019-04-12T04:30:43.075Z,4.33
2019-04-12T04:33:24.254Z,4.13
2019-04-12T04:36:05.228Z,4.97
2019-04-12T04:38:45.858Z,4.83
2019-04-12T04:41:26.404Z,4.30
2019-04-12T04:44:07.155Z,4.13
2019-04-12T04:46:47.864Z,4.57
2019-04-12T04:49:28.627Z,4.50
2019-04-12T04:52:09.312Z,3.97
2019-04-12T04:54:50.192Z,4.70
2019-04-12T04:57:31.044Z,4.37
2019-04-12T05:00:12.002Z,4.37
2019-04-12T05:02:52.829Z,4.97
2019-04-12T05:05:33.468Z,4.40
2019-04-12T05:08:14.264Z,5.30
2019-04-12T05:10:55.236Z,4.77
2019-04-12T05:13:35.933Z,5.27
2019-04-12T05:16:16.415Z,4.37
2019-04-12T05:18:57.323Z,5.27
2019-04-12T05:21:37.818Z,4.77
2019-04-12T05:24:18.493Z,4.90
2019-04-12T05:26:59.577Z,4.17
2019-04-12T05:29:40.440Z,4.03
2019-04-12T05:32:21.237Z,4.40
2019-04-12T05:35:01.883Z,4.67
2019-04-12T05:37:42.653Z,5.10
2019-04-12T05:40:23.403Z,4.50
2019-04-12T05:43:04.216Z,4.30
2019-04-12T05:46:07.604Z,4.70
2019-04-12T05:49:08.368Z,5.13
2019-04-12T05:51:49.301Z,4.70
2019-04-12T05:54:32.759Z,4.30
2019-04-12T05:57:13.332Z,5.00
2019-04-12T05:59:53.972Z,5.50
2019-04-12T06:02:38.279Z,5.80
2019-04-12T06:05:19.213Z,5.03
2019-04-12T06:07:59.935Z,5.20
2019-04-12T06:10:40.498Z,5.23
2019-04-12T06:13:21.287Z,5.77
2019-04-12T06:16:02.025Z,5.53
2019-04-12T06:18:43.197Z,5.00
2019-04-12T06:21:43.123Z,4.60
2019-04-12T06:24:24.339Z,5.20
2019-04-12T06:27:24.633Z,5.63
2019-04-12T06:30:05.428Z,4.63
2019-04-12T06:32:46.251Z,5.17
2019-04-12T06:35:29.418Z,4.40
2019-04-12T06:38:09.764Z,5.67
2019-04-12T06:40:50.497Z,5.43
2019-04-12T06:43:31.723Z,6.27
2019-04-12T06:46:12.814Z,5.67
2019-04-12T06:48:53.144Z,4.53
2019-04-12T06:51:33.915Z,4.77
2019-04-12T06:54:14.630Z,5.80
2019-04-12T07:00:21.015Z,5.80
2019-04-12T07:05:57.877Z,6.07
2019-04-12T07:08:38.485Z,5.43
2019-04-12T07:11:19.164Z,5.63
2019-04-12T07:14:00.026Z,6.20
2019-04-12T07:16:40.920Z,6.03
2019-04-12T07:19:21.977Z,6.17
2019-04-12T07:22:02.714Z,5.83
2019-04-12T07:24:43.047Z,5.70
2019-04-12T07:27:34.117Z,5.60
2019-04-12T07:30:06.015Z,6.50
2019-04-12T07:32:46.868Z,7.30
2019-04-12T07:35:27.225Z,6.20
2019-04-12T07:38:07.813Z,5.47
2019-04-12T07:40:48.479Z,6.80
2019-04-12T07:43:29.639Z,5.30
2019-04-12T07:46:10.423Z,5.63
2019-04-12T07:48:51.029Z,5.30
2019-04-12T07:51:53.370Z,5.07
2019-04-12T07:54:53.124Z,5.50
2019-04-12T07:57:52.869Z,5.50
2019-04-12T08:00:39.761Z,6.67
2019-04-12T08:03:39.893Z,6.43
2019-04-12T08:06:39.405Z,7.17
2019-04-12T08:09:20.555Z,6.73
2019-04-12T08:12:01.279Z,7.60
2019-04-12T08:14:41.869Z,8.20
2019-04-12T08:17:22.490Z,7.50
2019-04-12T08:20:03.301Z,8.93
2019-04-12T08:22:44.062Z,10.50
2019-04-12T08:25:25.012Z,9.13
2019-04-12T08:28:06.111Z,9.47
2019-04-12T08:30:48.779Z,8.47
2019-04-12T08:33:29.587Z,7.33
2019-04-12T08:36:10.475Z,7.77
2019-04-12T08:38:51.059Z,8.23
2019-04-12T08:41:31.848Z,8.33
2019-04-12T08:44:12.635Z,6.30
2019-04-12T08:46:53.487Z,7.60
2019-04-12T08:49:34.101Z,6.57
2019-04-12T08:52:14.596Z,6.73
2019-04-12T08:54:55.410Z,7.30
2019-04-12T08:57:36.355Z,7.60
2019-04-12T09:00:17.089Z,7.30
2019-04-12T09:02:59.151Z,8.47
2019-04-12T09:05:40.992Z,9.10
2019-04-12T09:08:20.533Z,8.80
2019-04-12T09:11:08.609Z,8.33
2019-04-12T09:13:56.631Z,8.33
2019-04-12T09:16:44.747Z,7.47
2019-04-12T09:19:53.609Z,7.93
2019-04-12T09:23:00.922Z,7.20
2019-04-12T09:26:08.123Z,6.47
2019-04-12T09:28:56.245Z,6.70
2019-04-12T09:31:44.348Z,8.30
2019-04-12T09:34:51.612Z,7.10
2019-04-12T09:37:39.623Z,6.93
2019-04-12T09:40:27.733Z,6.70
2019-04-12T09:43:15.850Z,7.87
2019-04-12T09:46:03.861Z,7.20
2019-04-12T09:48:52.198Z,6.30
2019-04-12T09:51:33.260Z,6.60
2019-04-12T09:54:13.786Z,7.10
2019-04-12T09:56:54.599Z,7.50
2019-04-12T09:59:36.198Z,8.03
2019-04-12T10:02:16.698Z,8.60
2019-04-12T10:04:57.708Z,8.80
2019-04-12T10:07:38.651Z,7.60
2019-04-12T10:10:18.009Z,8.43
2019-04-12T10:13:06.431Z,7.40
2019-04-12T10:15:54.497Z,6.60
2019-04-12T10:18:42.522Z,5.73
2019-04-12T10:21:30.936Z,5.47
2019-04-12T10:24:18.952Z,5.80
2019-04-12T10:27:07.287Z,6.37
2019-04-12T10:29:55.390Z,6.10
2019-04-12T10:35:51.351Z,5.53
2019-04-12T10:41:47.121Z,5.10
2019-04-12T10:47:57.902Z,5.87
2019-04-12T10:51:05.064Z,5.57
2019-04-12T10:56:46.079Z,6.30
2019-04-12T10:59:28.100Z,6.10
2019-04-12T11:02:09.057Z,5.70
2019-04-12T11:04:50.016Z,5.37
2019-04-12T11:07:30.476Z,5.27
2019-04-12T11:10:11.000Z,5.10
2019-04-12T11:12:51.689Z,5.37
2019-04-12T11:15:32.996Z,5.50
2019-04-12T11:18:13.936Z,5.33
2019-04-12T11:20:54.515Z,5.53
2019-04-12T11:23:35.572Z,5.63
2019-04-12T11:26:16.223Z,4.90
2019-04-12T11:28:56.926Z,5.13
2019-04-12T11:31:37.890Z,5.27
2019-04-12T11:34:18.734Z,4.43
2019-04-12T11:36:59.205Z,4.40
2019-04-12T11:39:40.032Z,4.00
2019-04-12T11:42:20.763Z,3.70
2019-04-12T11:45:01.529Z,5.30
2019-04-12T11:47:42.376Z,5.30
2019-04-12T11:50:23.099Z,6.23
2019-04-12T11:53:03.840Z,5.47
2019-04-12T11:55:44.553Z,5.60
2019-04-12T11:58:41.157Z,5.43
2019-04-12T12:01:26.952Z,5.57
2019-04-12T12:04:30.407Z,6.60
2019-04-12T12:07:30.597Z,6.90
2019-04-12T12:10:30.027Z,6.23
2019-04-12T12:16:42.490Z,6.20
2019-04-12T12:19:23.093Z,6.30
2019-04-12T12:22:04.143Z,5.87
2019-04-12T12:24:45.367Z,5.70
2019-04-12T12:27:27.100Z,5.40
2019-04-12T12:30:08.407Z,5.90
2019-04-12T12:32:47.436Z,5.60
2019-04-12T12:35:35.485Z,5.70
2019-04-12T12:38:23.548Z,5.10
2019-04-12T12:41:12.053Z,4.67
2019-04-12T12:44:00.084Z,5.10
2019-04-12T12:49:42.430Z,4.67
2019-04-12T12:52:23.724Z,4.90
2019-04-12T12:55:04.533Z,4.70
2019-04-12T12:57:45.289Z,4.00
2019-04-12T13:00:25.842Z,4.17
2019-04-12T13:03:07.051Z,4.30
2019-04-12T13:05:48.234Z,3.10
2019-04-12T13:08:29.441Z,3.77
2019-04-12T13:11:10.558Z,3.97
2019-04-12T13:13:51.306Z,3.70
2019-04-12T13:16:31.871Z,4.00
2019-04-12T13:19:12.924Z,4.00
2019-04-12T13:21:53.698Z,4.50
2019-04-12T13:24:34.189Z,4.40
2019-04-12T13:27:15.397Z,3.63
2019-04-12T13:30:06.558Z,4.30
2019-04-12T13:41:46.280Z,5.07
2019-04-12T13:44:27.331Z,4.13
2019-04-12T13:47:08.068Z,4.30
2019-04-12T13:49:48.814Z,3.67
2019-04-12T13:52:29.594Z,4.40
2019-04-12T13:55:10.672Z,4.40
2019-04-12T13:57:52.014Z,5.00
2019-04-12T14:00:32.692Z,4.30
2019-04-12T14:03:13.724Z,4.80
2019-04-12T14:05:54.105Z,4.80
2019-04-12T14:08:34.742Z,5.07
2019-04-12T14:11:15.442Z,4.37
2019-04-12T14:13:56.224Z,4.13
2019-04-12T14:16:36.878Z,4.73
2019-04-12T14:19:17.521Z,4.90
2019-04-12T14:21:58.213Z,4.13
2019-04-12T14:24:41.355Z,4.37
2019-04-12T14:27:21.596Z,4.53
2019-04-12T14:30:02.328Z,4.80
2019-04-12T14:32:48.407Z,4.60
2019-04-12T14:35:37.583Z,4.30
2019-04-12T14:38:19.774Z,4.57
2019-04-12T14:41:00.632Z,4.33
2019-04-12T14:46:39.839Z,4.07
2019-04-12T14:49:20.806Z,3.83
2019-04-12T14:52:01.563Z,4.00
2019-04-12T14:54:42.781Z,4.90
2019-04-12T14:57:23.260Z,4.80
2019-04-12T15:00:04.920Z,4.90
2019-04-12T15:02:47.588Z,5.10
2019-04-12T15:05:28.798Z,5.10
2019-04-12T15:08:09.582Z,4.70
2019-04-12T15:10:50.407Z,5.43
2019-04-12T15:13:31.661Z,4.53
2019-04-12T15:16:13.052Z,4.87
2019-04-12T15:18:54.262Z,5.10
2019-04-12T15:21:34.921Z,5.60
2019-04-12T15:24:16.114Z,4.80
2019-04-12T15:26:56.550Z,5.03
2019-04-12T15:29:37.881Z,5.83
2019-04-12T15:32:19.144Z,5.73
2019-04-12T15:35:00.163Z,5.07
2019-04-12T15:37:41.439Z,5.83
2019-04-12T15:40:22.236Z,5.07
2019-04-12T15:43:02.984Z,6.10
2019-04-12T15:45:44.955Z,5.37
2019-04-12T15:48:26.199Z,6.00
2019-04-12T15:51:07.425Z,6.03
2019-04-12T15:53:48.344Z,5.70
2019-04-12T15:56:29.487Z,7.00
2019-04-12T15:59:10.161Z,6.80
2019-04-12T16:01:51.340Z,6.00
2019-04-12T16:04:32.089Z,6.03
2019-04-12T16:07:12.720Z,5.70
2019-04-12T16:09:53.534Z,5.87
2019-04-12T16:12:34.335Z,6.47
2019-04-12T16:15:32.688Z,6.57
2019-04-12T16:21:14.328Z,6.07
2019-04-12T16:24:02.915Z,6.63
2019-04-12T16:27:11.881Z,7.10
2019-04-12T16:30:19.226Z,7.73
2019-04-12T16:36:27.388Z,7.97
2019-04-12T16:42:37.332Z,6.80
2019-04-12T16:45:25.328Z,8.00
2019-04-12T16:48:13.431Z,7.70
2019-04-12T16:51:01.441Z,7.30
2019-04-12T16:53:42.956Z,7.30
2019-04-12T16:56:23.343Z,7.47
2019-04-12T16:59:04.027Z,8.00
2019-04-12T17:01:44.643Z,8.30
2019-04-12T17:04:27.435Z,7.80
2019-04-12T17:07:08.151Z,8.37
2019-04-12T17:09:49.183Z,8.37
2019-04-12T17:12:30.199Z,8.93
2019-04-12T17:15:10.678Z,8.03
2019-04-12T17:17:51.652Z,8.20
2019-04-12T17:20:32.438Z,8.37
2019-04-12T17:23:13.776Z,8.40
2019-04-12T17:25:54.151Z,7.93
2019-04-12T17:28:34.941Z,8.40
2019-04-12T17:31:16.707Z,7.97
2019-04-12T17:33:57.505Z,8.47
2019-04-12T17:36:38.161Z,8.90
2019-04-12T17:39:18.871Z,8.53
2019-04-12T17:41:59.843Z,10.07
2019-04-12T17:44:40.496Z,8.07
2019-04-12T17:47:21.239Z,8.60
2019-04-12T17:50:08.379Z,10.00
2019-04-12T17:53:14.589Z,11.20
2019-04-12T17:55:58.040Z,9.23
2019-04-12T17:58:39.131Z,10.33
2019-04-12T18:04:35.174Z,8.57
2019-04-12T18:07:15.951Z,8.93
2019-04-12T18:09:56.802Z,9.50
2019-04-12T18:12:37.190Z,9.60
2019-04-12T18:15:19.304Z,9.93
2019-04-12T18:18:00.424Z,8.13
2019-04-12T18:20:41.057Z,9.40
2019-04-12T18:23:21.956Z,8.67
2019-04-12T18:26:03.415Z,8.70
2019-04-12T18:28:44.826Z,9.00
2019-04-12T18:31:26.093Z,9.47
2019-04-12T18:34:07.285Z,9.60
2019-04-12T18:36:48.484Z,9.77
2019-04-12T18:39:29.685Z,9.00
2019-04-12T18:42:10.322Z,9.10
2019-04-12T18:44:50.975Z,8.87
2019-04-12T18:47:31.920Z,9.67
2019-04-12T18:50:12.756Z,9.20
2019-04-12T18:52:53.468Z,10.60
2019-04-12T18:55:34.359Z,10.27
2019-04-12T18:58:15.018Z,9.30
2019-04-12T19:00:55.958Z,9.70
2019-04-12T19:03:36.581Z,10.30
2019-04-12T19:06:17.503Z,11.93
2019-04-12T19:08:58.368Z,13.43
2019-04-12T19:11:39.134Z,11.23
2019-04-12T19:14:20.507Z,10.27
2019-04-12T19:17:01.057Z,10.87
2019-04-12T19:19:42.109Z,11.40
2019-04-12T19:22:21.252Z,12.10
2019-04-12T19:25:09.353Z,10.83
2019-04-12T19:27:57.352Z,10.50
2019-04-12T19:33:40.989Z,10.53
2019-04-12T19:36:48.080Z,11.20
2019-04-12T19:42:39.234Z,10.40
2019-04-12T19:45:27.416Z,11.87
2019-04-12T19:48:15.512Z,12.20
2019-04-12T19:51:22.758Z,10.60
2019-04-12T19:54:04.038Z,10.10
2019-04-12T19:56:44.873Z,11.60
2019-04-12T19:59:25.305Z,11.43
2019-04-12T20:02:06.034Z,9.20
2019-04-12T20:04:46.799Z,9.70
2019-04-12T20:07:27.472Z,9.97
2019-04-12T20:10:08.703Z,11.40
2019-04-12T20:12:49.519Z,11.50
2019-04-12T20:15:30.458Z,11.57
2019-04-12T20:18:11.448Z,11.47
2019-04-12T20:20:52.126Z,11.10
2019-04-12T20:23:33.079Z,11.93
2019-04-12T20:26:13.880Z,12.43
2019-04-12T20:28:54.888Z,11.50
2019-04-12T20:31:36.319Z,11.73
2019-04-12T20:34:17.021Z,12.20
2019-04-12T20:36:57.660Z,11.40
2019-04-12T20:39:38.013Z,10.93
2019-04-12T20:42:19.514Z,11.13
2019-04-12T20:44:59.978Z,12.37
2019-04-12T20:47:41.333Z,12.37
2019-04-12T20:50:22.696Z,11.50
2019-04-12T20:53:03.971Z,10.87
2019-04-12T20:55:44.959Z,10.43
2019-04-12T20:58:25.400Z,13.30
2019-04-12T21:01:06.366Z,11.30
2019-04-12T21:03:46.974Z,12.03
2019-04-12T21:06:28.017Z,12.37
2019-04-12T21:09:08.611Z,11.20
2019-04-12T21:11:49.734Z,10.87
2019-04-12T21:14:30.276Z,10.73
2019-04-12T21:17:11.097Z,10.60
2019-04-12T21:19:51.466Z,10.70
2019-04-12T21:22:31.983Z,10.20
2019-04-12T21:25:12.601Z,10.37
2019-04-12T21:27:53.677Z,10.03
2019-04-12T21:30:34.647Z,11.40
2019-04-12T21:33:15.603Z,10.60
2019-04-12T21:35:56.215Z,10.60
2019-04-12T21:38:37.461Z,11.07
2019-04-12T21:41:18.299Z,11.90
2019-04-12T21:44:10.771Z,11.27
2019-04-12T21:46:42.273Z,10.60
2019-04-12T21:49:23.241Z,11.47
2019-04-12T21:52:03.680Z,10.87
2019-04-12T21:54:44.593Z,12.10
2019-04-12T21:57:24.901Z,11.50
2019-04-12T22:00:06.128Z,11.53
2019-04-12T22:02:47.409Z,12.17
2019-04-12T22:05:28.953Z,12.47
2019-04-12T22:08:09.494Z,13.17
2019-04-12T22:10:50.260Z,12.47
2019-04-12T22:13:30.727Z,12.23
2019-04-12T22:16:11.371Z,13.07
2019-04-12T22:18:52.367Z,10.53
2019-04-12T22:21:34.838Z,12.00
2019-04-12T22:24:15.481Z,12.50
2019-04-12T22:26:56.036Z,12.60
2019-04-12T22:29:36.657Z,12.17
2019-04-12T22:32:20.820Z,12.00
2019-04-12T22:35:01.716Z,12.50
2019-04-12T22:37:42.597Z,13.37
2019-04-12T22:40:23.673Z,13.13
2019-04-12T22:43:04.636Z,13.07
2019-04-12T22:45:45.225Z,13.70
2019-04-12T22:48:25.773Z,13.37
2019-04-12T22:51:06.408Z,13.27
2019-04-12T22:53:47.413Z,13.30
2019-04-12T22:56:28.070Z,14.10
2019-04-12T22:59:09.204Z,13.87
2019-04-12T23:01:50.224Z,13.30
2019-04-12T23:04:30.744Z,13.80
2019-04-12T23:07:11.591Z,14.10
2019-04-12T23:09:52.555Z,12.90
2019-04-12T23:12:33.195Z,14.70
2019-04-12T23:15:16.788Z,14.40
2019-04-12T23:17:57.592Z,16.00
2019-04-12T23:20:38.420Z,14.00
2019-04-12T23:23:19.196Z,14.17
2019-04-12T23:26:00.139Z,13.50
2019-04-12T23:28:41.075Z,13.67
2019-04-12T23:31:27.972Z,14.50
2019-04-12T23:34:27.600Z,12.97
2019-04-12T23:37:08.096Z,15.30
2019-04-12T23:39:48.528Z,14.20
2019-04-12T23:42:29.385Z,13.67
2019-04-12T23:45:11.441Z,14.10
2019-04-12T23:47:52.277Z,14.17
2019-04-12T23:50:33.411Z,15.20
2019-04-12T23:53:13.815Z,14.73
2019-04-12T23:55:54.435Z,13.47
2019-04-12T23:58:35.274Z,14.23
